TimeEST,TemperatureF,Dew PointF,Humidity,Sea Level PressureIn,VisibilityMPH,Wind Direction,Wind SpeedMPH,Gust SpeedMPH,PrecipitationIn,Events,Conditions,WindDirDegrees,DateUTC
12:53 AM,71.1,60.1,68,30.15,10.0,Calm,Calm,-,N/A,,Mostly Cloudy,0,2012-12-05 05:53:00
1:53 AM,70.0,61.0,73,30.14,10.0,Calm,Calm,-,N/A,,Mostly Cloudy,0,2012-12-05 06:53:00
2:53 AM,70.0,62.1,76,30.13,10.0,Calm,Calm,-,N/A,,Overcast,0,2012-12-05 07:53:00
3:53 AM,70.0,62.1,76,30.11,10.0,Calm,Calm,-,N/A,,Mostly Cloudy,0,2012-12-05 08:53:00
4:53 AM,69.1,62.1,78,30.11,10.0,Calm,Calm,-,N/A,,Overcast,0,2012-12-05 09:53:00
5:53 AM,69.1,63.0,81,30.11,10.0,Calm,Calm,-,N/A,,Mostly Cloudy,0,2012-12-05 10:53:00
6:53 AM,70.0,62.1,76,30.12,10.0,Variable,4.6,-,N/A,,Overcast,0,2012-12-05 11:53:00
7:53 AM,73.9,61.0,64,30.14,10.0,East,8.1,-,N/A,,Mostly Cloudy,100,2012-12-05 12:53:00
9:53 AM,75.9,60.1,58,30.16,10.0,ESE,10.4,-,N/A,,Overcast,110,2012-12-05 14:53:00
10:53 AM,75.9,60.1,58,30.14,10.0,ESE,11.5,-,N/A,,Overcast,110,2012-12-05 15:53:00
11:53 AM,78.1,59.0,52,30.12,10.0,East,10.4,19.6,N/A,,Mostly Cloudy,90,2012-12-05 16:53:00
12:53 PM,77.0,60.1,56,30.09,10.0,ESE,11.5,-,N/A,,Mostly Cloudy,110,2012-12-05 17:53:00
1:53 PM,78.1,61.0,56,30.07,10.0,ESE,10.4,-,N/A,,Mostly Cloudy,110,2012-12-05 18:53:00
2:53 PM,77.0,60.8,57,30.05,10.0,East,9.2,-,N/A,,Mostly Cloudy,90,2012-12-05 19:53:00
3:53 PM,77.0,61.0,58,30.04,10.0,ESE,4.6,-,N/A,,Mostly Cloudy,110,2012-12-05 20:53:00
4:53 PM,75.9,61.0,60,30.04,10.0,ENE,5.8,-,N/A,,Scattered Clouds,60,2012-12-05 21:53:00
5:53 PM,73.9,62.1,66,30.04,10.0,East,6.9,-,N/A,,Mostly Cloudy,90,2012-12-05 22:53:00
6:53 PM,73.9,62.1,66,30.04,10.0,East,8.1,-,N/A,,Mostly Cloudy,80,2012-12-05 23:53:00
7:53 PM,73.9,62.1,66,30.04,10.0,East,6.9,-,N/A,,Overcast,80,2012-12-06 00:53:00
8:53 PM,73.0,62.1,68,30.04,10.0,East,5.8,-,N/A,,Mostly Cloudy,90,2012-12-06 01:53:00
9:53 PM,73.0,62.1,68,30.04,10.0,East,3.5,-,N/A,,Overcast,90,2012-12-06 02:53:00
10:53 PM,72.0,62.1,71,30.04,10.0,Calm,Calm,-,N/A,,Mostly Cloudy,0,2012-12-06 03:53:00
11:53 PM,72.0,63.0,73,30.03,10.0,NNW,3.5,-,N/A,,Mostly Cloudy,330,2012-12-06 04:53:00